sensor_id;sensor_type;location;lat;lon;timestamp;P1;durP1;ratioP1;P2;durP2;ratioP2
66761;SDS011;53672;48.176;16.338;2023-08-08T00:03:36;4.50;;;1.70;;
66761;SDS011;53672;48.176;16.338;2023-08-08T00:08:37;3.60;;;1.30;;
66761;SDS011;53672;48.176;16.338;2023-08-08T00:13:38;3.17;;;1.30;;
66761;SDS011;53672;48.176;16.338;2023-08-08T00:18:39;4.00;;;1.20;;
66761;SDS011;53672;48.176;16.338;2023-08-08T00:23:39;3.70;;;1.10;;
66761;SDS011;53672;48.176;16.338;2023-08-08T00:28:41;3.47;;;1.30;;
66761;SDS011;53672;48.176;16.338;2023-08-08T00:33:42;3.47;;;1.35;;
66761;SDS011;53672;48.176;16.338;2023-08-08T00:38:42;4.23;;;1.50;;
66761;SDS011;53672;48.176;16.338;2023-08-08T00:43:44;3.40;;;1.30;;
66761;SDS011;53672;48.176;16.338;2023-08-08T00:48:44;4.18;;;1.42;;
66761;SDS011;53672;48.176;16.338;2023-08-08T00:53:45;4.23;;;1.47;;
66761;SDS011;53672;48.176;16.338;2023-08-08T00:58:47;4.50;;;1.50;;
66761;SDS011;53672;48.176;16.338;2023-08-08T01:03:48;3.55;;;1.33;;
66761;SDS011;53672;48.176;16.338;2023-08-08T01:08:51;4.43;;;1.30;;
66761;SDS011;53672;48.176;16.338;2023-08-08T01:13:56;4.38;;;1.60;;
66761;SDS011;53672;48.176;16.338;2023-08-08T01:18:58;5.03;;;1.20;;
66761;SDS011;53672;48.176;16.338;2023-08-08T01:24:00;4.18;;;1.13;;
66761;SDS011;53672;48.176;16.338;2023-08-08T01:29:08;3.92;;;1.35;;
66761;SDS011;53672;48.176;16.338;2023-08-08T01:34:08;4.50;;;1.20;;
66761;SDS011;53672;48.176;16.338;2023-08-08T01:39:09;3.38;;;1.30;;
66761;SDS011;53672;48.176;16.338;2023-08-08T01:44:23;3.43;;;1.30;;
66761;SDS011;53672;48.176;16.338;2023-08-08T01:49:24;7.22;;;1.50;;
66761;SDS011;53672;48.176;16.338;2023-08-08T01:54:25;3.20;;;1.17;;
66761;SDS011;53672;48.176;16.338;2023-08-08T01:59:27;3.17;;;1.30;;
66761;SDS011;53672;48.176;16.338;2023-08-08T02:04:27;4.07;;;1.40;;
66761;SDS011;53672;48.176;16.338;2023-08-08T02:09:28;4.10;;;1.20;;
66761;SDS011;53672;48.176;16.338;2023-08-08T02:14:29;3.17;;;1.10;;
66761;SDS011;53672;48.176;16.338;2023-08-08T02:19:30;3.72;;;1.20;;
66761;SDS011;53672;48.176;16.338;2023-08-08T02:24:30;4.65;;;1.50;;
66761;SDS011;53672;48.176;16.338;2023-08-08T02:29:32;3.50;;;1.10;;
66761;SDS011;53672;48.176;16.338;2023-08-08T02:34:33;5.10;;;1.30;;
66761;SDS011;53672;48.176;16.338;2023-08-08T02:39:33;3.37;;;1.20;;
66761;SDS011;53672;48.176;16.338;2023-08-08T02:44:35;4.60;;;1.40;;
66761;SDS011;53672;48.176;16.338;2023-08-08T02:49:35;3.70;;;1.33;;
66761;SDS011;53672;48.176;16.338;2023-08-08T02:54:36;4.07;;;1.50;;
66761;SDS011;53672;48.176;16.338;2023-08-08T02:59:38;3.80;;;1.40;;
66761;SDS011;53672;48.176;16.338;2023-08-08T03:04:38;3.53;;;1.30;;
66761;SDS011;53672;48.176;16.338;2023-08-08T03:09:39;3.63;;;1.17;;
66761;SDS011;53672;48.176;16.338;2023-08-08T03:14:40;4.00;;;1.20;;
66761;SDS011;53672;48.176;16.338;2023-08-08T03:19:41;3.85;;;1.30;;
66761;SDS011;53672;48.176;16.338;2023-08-08T03:24:41;4.87;;;1.60;;
66761;SDS011;53672;48.176;16.338;2023-08-08T03:29:43;3.70;;;1.30;;
66761;SDS011;53672;48.176;16.338;2023-08-08T03:34:44;4.03;;;1.35;;
66761;SDS011;53672;48.176;16.338;2023-08-08T03:39:44;3.47;;;1.40;;
66761;SDS011;53672;48.176;16.338;2023-08-08T03:44:46;4.67;;;1.40;;
66761;SDS011;53672;48.176;16.338;2023-08-08T03:49:46;3.77;;;1.40;;
66761;SDS011;53672;48.176;16.338;2023-08-08T03:54:47;3.97;;;1.40;;
66761;SDS011;53672;48.176;16.338;2023-08-08T03:59:49;3.22;;;1.20;;
66761;SDS011;53672;48.176;16.338;2023-08-08T04:04:49;3.40;;;1.30;;
66761;SDS011;53672;48.176;16.338;2023-08-08T04:09:50;3.37;;;1.20;;
66761;SDS011;53672;48.176;16.338;2023-08-08T04:14:51;3.77;;;1.10;;
66761;SDS011;53672;48.176;16.338;2023-08-08T04:19:52;3.65;;;1.25;;
66761;SDS011;53672;48.176;16.338;2023-08-08T04:24:52;5.97;;;1.43;;
66761;SDS011;53672;48.176;16.338;2023-08-08T04:29:54;4.47;;;1.20;;
66761;SDS011;53672;48.176;16.338;2023-08-08T04:34:55;3.78;;;1.45;;
66761;SDS011;53672;48.176;16.338;2023-08-08T04:39:55;4.77;;;1.20;;
66761;SDS011;53672;48.176;16.338;2023-08-08T04:44:57;3.53;;;1.30;;
66761;SDS011;53672;48.176;16.338;2023-08-08T04:49:58;3.20;;;1.40;;
66761;SDS011;53672;48.176;16.338;2023-08-08T04:54:58;4.57;;;1.50;;
66761;SDS011;53672;48.176;16.338;2023-08-08T05:00:00;3.40;;;1.30;;
66761;SDS011;53672;48.176;16.338;2023-08-08T05:05:01;3.90;;;1.33;;
66761;SDS011;53672;48.176;16.338;2023-08-08T05:10:01;3.87;;;1.53;;
66761;SDS011;53672;48.176;16.338;2023-08-08T05:15:04;3.80;;;1.27;;
66761;SDS011;53672;48.176;16.338;2023-08-08T05:20:05;4.13;;;1.20;;
66761;SDS011;53672;48.176;16.338;2023-08-08T05:25:07;5.17;;;1.17;;
66761;SDS011;53672;48.176;16.338;2023-08-08T05:30:10;4.20;;;1.15;;
66761;SDS011;53672;48.176;16.338;2023-08-08T05:35:11;3.88;;;1.25;;
66761;SDS011;53672;48.176;16.338;2023-08-08T05:40:11;3.97;;;1.40;;
66761;SDS011;53672;48.176;16.338;2023-08-08T05:45:13;4.00;;;1.40;;
66761;SDS011;53672;48.176;16.338;2023-08-08T05:50:13;4.50;;;1.10;;
66761;SDS011;53672;48.176;16.338;2023-08-08T05:55:14;2.93;;;0.97;;
66761;SDS011;53672;48.176;16.338;2023-08-08T06:00:16;3.83;;;1.00;;
66761;SDS011;53672;48.176;16.338;2023-08-08T06:05:17;3.22;;;1.17;;
66761;SDS011;53672;48.176;16.338;2023-08-08T06:10:21;3.80;;;1.15;;
66761;SDS011;53672;48.176;16.338;2023-08-08T06:15:23;4.80;;;1.10;;
66761;SDS011;53672;48.176;16.338;2023-08-08T06:20:23;3.53;;;1.08;;
66761;SDS011;53672;48.176;16.338;2023-08-08T06:25:24;3.20;;;1.10;;
66761;SDS011;53672;48.176;16.338;2023-08-08T06:30:26;3.57;;;1.10;;
66761;SDS011;53672;48.176;16.338;2023-08-08T06:35:26;3.17;;;1.00;;
66761;SDS011;53672;48.176;16.338;2023-08-08T06:40:27;4.97;;;1.15;;
66761;SDS011;53672;48.176;16.338;2023-08-08T06:45:28;3.67;;;1.20;;
66761;SDS011;53672;48.176;16.338;2023-08-08T06:50:29;2.60;;;0.93;;
66761;SDS011;53672;48.176;16.338;2023-08-08T06:55:30;3.83;;;1.23;;
66761;SDS011;53672;48.176;16.338;2023-08-08T07:00:31;4.07;;;1.20;;
66761;SDS011;53672;48.176;16.338;2023-08-08T07:05:32;4.00;;;1.50;;
66761;SDS011;53672;48.176;16.338;2023-08-08T07:10:32;3.10;;;1.20;;
66761;SDS011;53672;48.176;16.338;2023-08-08T07:15:34;3.87;;;1.30;;
66761;SDS011;53672;48.176;16.338;2023-08-08T07:20:35;2.90;;;0.98;;
66761;SDS011;53672;48.176;16.338;2023-08-08T07:25:35;3.30;;;1.20;;
66761;SDS011;53672;48.176;16.338;2023-08-08T07:30:37;5.03;;;1.90;;
66761;SDS011;53672;48.176;16.338;2023-08-08T07:35:37;3.60;;;1.60;;
66761;SDS011;53672;48.176;16.338;2023-08-08T07:40:38;4.93;;;1.43;;
66761;SDS011;53672;48.176;16.338;2023-08-08T07:45:40;5.87;;;2.50;;
66761;SDS011;53672;48.176;16.338;2023-08-08T07:50:40;4.07;;;1.48;;
66761;SDS011;53672;48.176;16.338;2023-08-08T07:55:41;4.75;;;1.13;;
66761;SDS011;53672;48.176;16.338;2023-08-08T08:00:42;4.60;;;1.30;;
66761;SDS011;53672;48.176;16.338;2023-08-08T08:05:43;3.10;;;1.20;;
66761;SDS011;53672;48.176;16.338;2023-08-08T08:10:43;3.40;;;1.20;;
66761;SDS011;53672;48.176;16.338;2023-08-08T08:15:45;3.20;;;1.30;;
66761;SDS011;53672;48.176;16.338;2023-08-08T08:20:46;3.83;;;1.27;;
66761;SDS011;53672;48.176;16.338;2023-08-08T08:25:47;3.53;;;1.23;;
66761;SDS011;53672;48.176;16.338;2023-08-08T08:30:48;4.63;;;1.37;;
66761;SDS011;53672;48.176;16.338;2023-08-08T08:35:49;3.05;;;1.08;;
66761;SDS011;53672;48.176;16.338;2023-08-08T08:40:49;4.87;;;1.40;;
66761;SDS011;53672;48.176;16.338;2023-08-08T08:45:57;3.70;;;1.30;;
66761;SDS011;53672;48.176;16.338;2023-08-08T08:51:00;6.37;;;1.10;;
66761;SDS011;53672;48.176;16.338;2023-08-08T08:56:01;3.97;;;1.20;;
66761;SDS011;53672;48.176;16.338;2023-08-08T09:01:03;3.90;;;1.27;;
66761;SDS011;53672;48.176;16.338;2023-08-08T09:06:04;3.35;;;1.38;;
66761;SDS011;53672;48.176;16.338;2023-08-08T09:11:05;4.27;;;1.30;;
66761;SDS011;53672;48.176;16.338;2023-08-08T09:16:07;3.80;;;1.30;;
66761;SDS011;53672;48.176;16.338;2023-08-08T09:21:08;2.78;;;1.00;;
66761;SDS011;53672;48.176;16.338;2023-08-08T09:26:08;4.23;;;1.30;;
66761;SDS011;53672;48.176;16.338;2023-08-08T09:31:10;4.73;;;1.10;;
66761;SDS011;53672;48.176;16.338;2023-08-08T09:36:13;4.25;;;1.50;;
66761;SDS011;53672;48.176;16.338;2023-08-08T09:41:14;6.05;;;2.20;;
66761;SDS011;53672;48.176;16.338;2023-08-08T09:46:16;3.67;;;1.40;;
66761;SDS011;53672;48.176;16.338;2023-08-08T09:51:18;4.43;;;1.20;;
66761;SDS011;53672;48.176;16.338;2023-08-08T09:56:20;4.57;;;1.30;;
66761;SDS011;53672;48.176;16.338;2023-08-08T10:01:23;4.18;;;1.17;;
66761;SDS011;53672;48.176;16.338;2023-08-08T10:06:26;4.57;;;1.30;;
66761;SDS011;53672;48.176;16.338;2023-08-08T10:11:26;2.87;;;1.07;;
66761;SDS011;53672;48.176;16.338;2023-08-08T10:16:31;3.10;;;1.30;;
66761;SDS011;53672;48.176;16.338;2023-08-08T10:21:33;3.27;;;1.37;;
66761;SDS011;53672;48.176;16.338;2023-08-08T10:26:50;3.75;;;1.10;;
66761;SDS011;53672;48.176;16.338;2023-08-08T10:31:52;3.45;;;1.13;;
66761;SDS011;53672;48.176;16.338;2023-08-08T10:36:57;3.20;;;1.50;;
66761;SDS011;53672;48.176;16.338;2023-08-08T10:42:00;3.53;;;1.30;;
66761;SDS011;53672;48.176;16.338;2023-08-08T10:47:04;3.10;;;1.23;;
66761;SDS011;53672;48.176;16.338;2023-08-08T10:52:05;3.17;;;1.48;;
66761;SDS011;53672;48.176;16.338;2023-08-08T10:57:14;3.22;;;1.33;;
66761;SDS011;53672;48.176;16.338;2023-08-08T11:02:17;3.03;;;1.30;;
66761;SDS011;53672;48.176;16.338;2023-08-08T11:07:19;3.43;;;1.30;;
66761;SDS011;53672;48.176;16.338;2023-08-08T11:12:20;3.83;;;1.50;;
66761;SDS011;53672;48.176;16.338;2023-08-08T11:17:21;2.70;;;1.10;;
66761;SDS011;53672;48.176;16.338;2023-08-08T11:22:22;4.70;;;1.50;;
66761;SDS011;53672;48.176;16.338;2023-08-08T11:27:23;3.77;;;1.77;;
66761;SDS011;53672;48.176;16.338;2023-08-08T11:32:25;3.45;;;1.50;;
66761;SDS011;53672;48.176;16.338;2023-08-08T11:37:28;3.07;;;1.40;;
66761;SDS011;53672;48.176;16.338;2023-08-08T11:42:28;3.40;;;1.48;;
66761;SDS011;53672;48.176;16.338;2023-08-08T11:47:30;2.83;;;1.50;;
66761;SDS011;53672;48.176;16.338;2023-08-08T11:52:32;3.37;;;1.60;;
66761;SDS011;53672;48.176;16.338;2023-08-08T11:57:33;3.13;;;1.58;;
66761;SDS011;53672;48.176;16.338;2023-08-08T12:02:37;3.55;;;1.50;;
66761;SDS011;53672;48.176;16.338;2023-08-08T12:07:39;4.32;;;1.65;;
66761;SDS011;53672;48.176;16.338;2023-08-08T12:12:40;4.88;;;1.85;;
66761;SDS011;53672;48.176;16.338;2023-08-08T12:17:43;6.10;;;2.30;;
66761;SDS011;53672;48.176;16.338;2023-08-08T12:22:44;5.10;;;2.20;;
66761;SDS011;53672;48.176;16.338;2023-08-08T12:27:44;3.27;;;1.90;;
66761;SDS011;53672;48.176;16.338;2023-08-08T12:32:46;3.70;;;1.93;;
66761;SDS011;53672;48.176;16.338;2023-08-08T12:37:46;4.10;;;2.20;;
66761;SDS011;53672;48.176;16.338;2023-08-08T12:42:47;9.33;;;3.87;;
66761;SDS011;53672;48.176;16.338;2023-08-08T12:47:49;3.90;;;2.20;;
66761;SDS011;53672;48.176;16.338;2023-08-08T12:52:49;4.75;;;2.22;;
66761;SDS011;53672;48.176;16.338;2023-08-08T12:57:50;3.13;;;2.20;;
66761;SDS011;53672;48.176;16.338;2023-08-08T13:02:51;3.20;;;2.10;;
66761;SDS011;53672;48.176;16.338;2023-08-08T13:07:52;4.30;;;2.20;;
66761;SDS011;53672;48.176;16.338;2023-08-08T13:12:52;4.18;;;2.13;;
66761;SDS011;53672;48.176;16.338;2023-08-08T13:17:54;4.03;;;2.10;;
66761;SDS011;53672;48.176;16.338;2023-08-08T13:22:55;3.20;;;1.80;;
66761;SDS011;53672;48.176;16.338;2023-08-08T13:27:55;3.07;;;1.43;;
66761;SDS011;53672;48.176;16.338;2023-08-08T13:32:57;3.97;;;1.30;;
66761;SDS011;53672;48.176;16.338;2023-08-08T13:37:57;3.58;;;1.40;;
66761;SDS011;53672;48.176;16.338;2023-08-08T13:42:58;2.93;;;1.20;;
66761;SDS011;53672;48.176;16.338;2023-08-08T13:48:00;3.30;;;1.20;;
66761;SDS011;53672;48.176;16.338;2023-08-08T13:53:00;2.65;;;1.10;;
66761;SDS011;53672;48.176;16.338;2023-08-08T13:58:01;3.20;;;1.23;;
66761;SDS011;53672;48.176;16.338;2023-08-08T14:03:03;3.07;;;1.23;;
66761;SDS011;53672;48.176;16.338;2023-08-08T14:08:04;3.45;;;1.23;;
66761;SDS011;53672;48.176;16.338;2023-08-08T14:13:04;3.50;;;1.50;;
66761;SDS011;53672;48.176;16.338;2023-08-08T14:18:06;3.00;;;1.20;;
66761;SDS011;53672;48.176;16.338;2023-08-08T14:23:07;2.92;;;1.20;;
66761;SDS011;53672;48.176;16.338;2023-08-08T14:28:07;2.90;;;1.10;;
66761;SDS011;53672;48.176;16.338;2023-08-08T14:33:09;4.60;;;1.20;;
66761;SDS011;53672;48.176;16.338;2023-08-08T14:38:10;3.20;;;1.30;;
66761;SDS011;53672;48.176;16.338;2023-08-08T14:43:10;3.00;;;1.20;;
66761;SDS011;53672;48.176;16.338;2023-08-08T14:48:12;3.10;;;1.17;;
66761;SDS011;53672;48.176;16.338;2023-08-08T14:53:12;3.53;;;1.40;;
66761;SDS011;53672;48.176;16.338;2023-08-08T14:58:13;3.30;;;1.30;;
66761;SDS011;53672;48.176;16.338;2023-08-08T15:03:15;3.20;;;1.30;;
66761;SDS011;53672;48.176;16.338;2023-08-08T15:08:15;3.15;;;1.40;;
66761;SDS011;53672;48.176;16.338;2023-08-08T15:13:16;3.13;;;1.30;;
66761;SDS011;53672;48.176;16.338;2023-08-08T15:18:17;4.83;;;1.30;;
66761;SDS011;53672;48.176;16.338;2023-08-08T15:23:18;3.95;;;1.50;;
66761;SDS011;53672;48.176;16.338;2023-08-08T15:28:19;3.17;;;1.47;;
66761;SDS011;53672;48.176;16.338;2023-08-08T15:33:20;3.43;;;1.30;;
66761;SDS011;53672;48.176;16.338;2023-08-08T15:38:21;4.80;;;1.70;;
66761;SDS011;53672;48.176;16.338;2023-08-08T15:43:21;4.03;;;1.80;;
66761;SDS011;53672;48.176;16.338;2023-08-08T15:48:23;3.37;;;1.40;;
66761;SDS011;53672;48.176;16.338;2023-08-08T15:53:24;4.45;;;1.60;;
66761;SDS011;53672;48.176;16.338;2023-08-08T15:58:24;3.47;;;1.40;;
66761;SDS011;53672;48.176;16.338;2023-08-08T16:03:26;3.10;;;1.30;;
66761;SDS011;53672;48.176;16.338;2023-08-08T16:08:27;3.60;;;1.50;;
66761;SDS011;53672;48.176;16.338;2023-08-08T16:13:27;3.88;;;1.40;;
66761;SDS011;53672;48.176;16.338;2023-08-08T16:18:29;3.53;;;1.40;;
66761;SDS011;53672;48.176;16.338;2023-08-08T16:23:29;5.30;;;1.40;;
66761;SDS011;53672;48.176;16.338;2023-08-08T16:28:30;3.53;;;1.50;;
66761;SDS011;53672;48.176;16.338;2023-08-08T16:33:32;5.10;;;1.60;;
66761;SDS011;53672;48.176;16.338;2023-08-08T16:38:32;3.30;;;1.40;;
66761;SDS011;53672;48.176;16.338;2023-08-08T16:43:34;3.97;;;1.37;;
66761;SDS011;53672;48.176;16.338;2023-08-08T16:48:37;3.50;;;1.60;;
66761;SDS011;53672;48.176;16.338;2023-08-08T16:53:37;4.27;;;1.50;;
66761;SDS011;53672;48.176;16.338;2023-08-08T16:58:37;4.83;;;1.60;;
66761;SDS011;53672;48.176;16.338;2023-08-08T17:03:40;4.00;;;1.65;;
66761;SDS011;53672;48.176;16.338;2023-08-08T17:08:41;3.43;;;1.50;;
66761;SDS011;53672;48.176;16.338;2023-08-08T17:13:42;4.37;;;1.60;;
66761;SDS011;53672;48.176;16.338;2023-08-08T17:18:45;4.05;;;1.83;;
66761;SDS011;53672;48.176;16.338;2023-08-08T17:23:46;4.93;;;1.40;;
66761;SDS011;53672;48.176;16.338;2023-08-08T17:28:48;4.38;;;1.60;;
66761;SDS011;53672;48.176;16.338;2023-08-08T17:33:51;6.53;;;1.50;;
66761;SDS011;53672;48.176;16.338;2023-08-08T17:38:52;4.50;;;1.60;;
66761;SDS011;53672;48.176;16.338;2023-08-08T17:43:55;5.07;;;1.60;;
66761;SDS011;53672;48.176;16.338;2023-08-08T17:48:58;4.30;;;1.70;;
66761;SDS011;53672;48.176;16.338;2023-08-08T17:53:59;3.88;;;1.60;;
66761;SDS011;53672;48.176;16.338;2023-08-08T17:59:00;4.68;;;1.63;;
66761;SDS011;53672;48.176;16.338;2023-08-08T18:04:02;3.33;;;1.47;;
66761;SDS011;53672;48.176;16.338;2023-08-08T18:09:04;4.30;;;1.50;;
66761;SDS011;53672;48.176;16.338;2023-08-08T18:14:04;5.63;;;1.57;;
66761;SDS011;53672;48.176;16.338;2023-08-08T18:19:08;4.57;;;1.58;;
66761;SDS011;53672;48.176;16.338;2023-08-08T18:24:10;3.67;;;1.60;;
66761;SDS011;53672;48.176;16.338;2023-08-08T18:29:12;4.55;;;1.75;;
66761;SDS011;53672;48.176;16.338;2023-08-08T18:34:13;3.83;;;1.60;;
66761;SDS011;53672;48.176;16.338;2023-08-08T18:39:16;3.45;;;1.50;;
66761;SDS011;53672;48.176;16.338;2023-08-08T18:44:21;4.60;;;2.27;;
66761;SDS011;53672;48.176;16.338;2023-08-08T18:49:23;5.80;;;2.47;;
66761;SDS011;53672;48.176;16.338;2023-08-08T18:54:24;5.55;;;2.50;;
66761;SDS011;53672;48.176;16.338;2023-08-08T18:59:27;6.57;;;2.42;;
66761;SDS011;53672;48.176;16.338;2023-08-08T19:04:29;7.65;;;3.40;;
66761;SDS011;53672;48.176;16.338;2023-08-08T19:09:30;5.83;;;2.90;;
66761;SDS011;53672;48.176;16.338;2023-08-08T19:14:31;4.95;;;2.38;;
66761;SDS011;53672;48.176;16.338;2023-08-08T19:19:34;5.40;;;2.25;;
66761;SDS011;53672;48.176;16.338;2023-08-08T19:24:35;5.50;;;2.42;;
66761;SDS011;53672;48.176;16.338;2023-08-08T19:29:37;5.72;;;2.30;;
66761;SDS011;53672;48.176;16.338;2023-08-08T19:34:39;5.07;;;2.13;;
66761;SDS011;53672;48.176;16.338;2023-08-08T19:39:40;5.18;;;2.35;;
66761;SDS011;53672;48.176;16.338;2023-08-08T19:44:42;7.18;;;2.28;;
66761;SDS011;53672;48.176;16.338;2023-08-08T19:49:44;6.40;;;2.25;;
66761;SDS011;53672;48.176;16.338;2023-08-08T19:54:46;5.22;;;2.13;;
66761;SDS011;53672;48.176;16.338;2023-08-08T19:59:47;6.37;;;2.63;;
66761;SDS011;53672;48.176;16.338;2023-08-08T20:04:49;5.13;;;2.10;;
66761;SDS011;53672;48.176;16.338;2023-08-08T20:09:50;5.05;;;1.90;;
66761;SDS011;53672;48.176;16.338;2023-08-08T20:14:52;5.38;;;2.05;;
66761;SDS011;53672;48.176;16.338;2023-08-08T20:19:54;6.37;;;1.97;;
66761;SDS011;53672;48.176;16.338;2023-08-08T20:24:55;5.18;;;2.00;;
66761;SDS011;53672;48.176;16.338;2023-08-08T20:29:56;7.40;;;3.23;;
66761;SDS011;53672;48.176;16.338;2023-08-08T20:34:59;5.77;;;2.20;;
66761;SDS011;53672;48.176;16.338;2023-08-08T20:40:01;6.10;;;2.30;;
66761;SDS011;53672;48.176;16.338;2023-08-08T20:45:03;5.93;;;2.33;;
66761;SDS011;53672;48.176;16.338;2023-08-08T20:50:07;5.63;;;2.23;;
66761;SDS011;53672;48.176;16.338;2023-08-08T20:55:08;5.72;;;2.10;;
66761;SDS011;53672;48.176;16.338;2023-08-08T21:00:09;5.27;;;2.10;;
66761;SDS011;53672;48.176;16.338;2023-08-08T21:05:12;6.80;;;2.22;;
66761;SDS011;53672;48.176;16.338;2023-08-08T21:10:12;5.40;;;2.10;;
66761;SDS011;53672;48.176;16.338;2023-08-08T21:15:13;6.77;;;2.30;;
66761;SDS011;53672;48.176;16.338;2023-08-08T21:20:15;7.67;;;3.60;;
66761;SDS011;53672;48.176;16.338;2023-08-08T21:25:15;5.03;;;2.05;;
66761;SDS011;53672;48.176;16.338;2023-08-08T21:30:16;8.23;;;2.20;;
66761;SDS011;53672;48.176;16.338;2023-08-08T21:35:18;4.63;;;2.10;;
66761;SDS011;53672;48.176;16.338;2023-08-08T21:40:18;5.75;;;2.40;;
66761;SDS011;53672;48.176;16.338;2023-08-08T21:45:19;6.17;;;2.10;;
66761;SDS011;53672;48.176;16.338;2023-08-08T21:50:21;6.33;;;2.60;;
66761;SDS011;53672;48.176;16.338;2023-08-08T21:55:21;5.90;;;2.45;;
66761;SDS011;53672;48.176;16.338;2023-08-08T22:00:22;9.13;;;2.73;;
66761;SDS011;53672;48.176;16.338;2023-08-08T22:05:24;6.55;;;2.35;;
66761;SDS011;53672;48.176;16.338;2023-08-08T22:10:25;5.75;;;2.30;;
66761;SDS011;53672;48.176;16.338;2023-08-08T22:15:25;5.07;;;2.10;;
66761;SDS011;53672;48.176;16.338;2023-08-08T22:20:27;5.17;;;2.30;;
66761;SDS011;53672;48.176;16.338;2023-08-08T22:25:27;5.65;;;2.33;;
66761;SDS011;53672;48.176;16.338;2023-08-08T22:30:28;5.60;;;2.00;;
66761;SDS011;53672;48.176;16.338;2023-08-08T22:35:30;8.83;;;3.80;;
66761;SDS011;53672;48.176;16.338;2023-08-08T22:40:30;4.60;;;2.00;;
66761;SDS011;53672;48.176;16.338;2023-08-08T22:45:31;5.20;;;2.20;;
66761;SDS011;53672;48.176;16.338;2023-08-08T22:50:33;5.93;;;2.13;;
66761;SDS011;53672;48.176;16.338;2023-08-08T22:55:34;5.57;;;1.88;;
66761;SDS011;53672;48.176;16.338;2023-08-08T23:00:34;5.20;;;1.90;;
66761;SDS011;53672;48.176;16.338;2023-08-08T23:05:36;4.73;;;1.80;;
66761;SDS011;53672;48.176;16.338;2023-08-08T23:10:36;4.78;;;1.90;;
66761;SDS011;53672;48.176;16.338;2023-08-08T23:15:37;4.07;;;1.77;;
66761;SDS011;53672;48.176;16.338;2023-08-08T23:20:39;4.43;;;1.60;;
66761;SDS011;53672;48.176;16.338;2023-08-08T23:25:39;4.17;;;1.80;;
66761;SDS011;53672;48.176;16.338;2023-08-08T23:30:39;3.93;;;1.80;;
66761;SDS011;53672;48.176;16.338;2023-08-08T23:35:41;6.85;;;1.98;;
66761;SDS011;53672;48.176;16.338;2023-08-08T23:40:42;5.13;;;1.98;;
66761;SDS011;53672;48.176;16.338;2023-08-08T23:45:42;4.67;;;1.80;;
66761;SDS011;53672;48.176;16.338;2023-08-08T23:50:44;5.50;;;2.00;;
66761;SDS011;53672;48.176;16.338;2023-08-08T23:55:45;4.55;;;1.90;;
